createdAt,value
2023-01-30T00:01:20.190Z,101097.63
2023-01-30T00:03:47.054Z,101090.87
2023-01-30T00:06:13.830Z,101077.78
2023-01-30T00:08:40.497Z,101084.81
2023-01-30T00:11:08.717Z,101079.66
2023-01-30T00:13:35.432Z,101079.28
2023-01-30T00:16:02.335Z,101083.75
2023-01-30T00:18:29.116Z,101072.25
2023-01-30T00:20:56.944Z,101076.34
2023-01-30T00:23:23.742Z,101060.37
2023-01-30T00:25:50.801Z,101061.44
2023-01-30T00:28:17.688Z,101062.78
2023-01-30T00:30:44.425Z,101060.19
2023-01-30T00:33:11.447Z,101062.44
2023-01-30T00:35:38.248Z,101063.28
2023-01-30T00:38:04.958Z,101053.41
2023-01-30T00:40:31.668Z,101050.44
2023-01-30T00:43:16.712Z,101055.34
2023-01-30T00:46:03.573Z,101049.88
2023-01-30T00:48:31.025Z,101042.47
2023-01-30T00:50:58.047Z,101045.78
2023-01-30T00:53:24.964Z,101046.78
2023-01-30T00:55:52.207Z,101046.16
2023-01-30T00:58:19.417Z,101040.00
2023-01-30T01:00:46.270Z,101037.00
2023-01-30T01:03:13.161Z,101028.25
2023-01-30T01:05:39.910Z,101027.78
2023-01-30T01:08:06.678Z,101030.97
2023-01-30T01:10:33.948Z,101031.81
2023-01-30T01:13:00.831Z,101029.87
2023-01-30T01:15:27.631Z,101024.38
2023-01-30T01:17:56.005Z,101023.81
2023-01-30T01:20:23.318Z,101022.41
2023-01-30T01:22:54.059Z,101015.47
2023-01-30T01:25:23.397Z,101017.72
2023-01-30T01:27:50.491Z,101010.22
2023-01-30T01:30:17.989Z,101006.94
2023-01-30T01:32:45.047Z,101001.25
2023-01-30T01:35:12.187Z,100995.19
2023-01-30T01:37:38.899Z,100989.81
2023-01-30T01:40:24.581Z,100998.12
2023-01-30T01:42:51.456Z,101005.28
2023-01-30T01:45:18.700Z,100995.75
2023-01-30T01:47:48.739Z,100993.31
2023-01-30T01:50:19.087Z,100993.31
2023-01-30T01:52:47.009Z,100993.19
2023-01-30T01:55:14.488Z,100983.66
2023-01-30T01:58:02.760Z,100986.50
2023-01-30T02:00:29.601Z,100977.66
2023-01-30T02:03:00.788Z,100976.84
2023-01-30T02:05:30.524Z,100979.97
2023-01-30T02:08:05.170Z,100983.50
2023-01-30T02:10:50.491Z,100976.03
2023-01-30T02:13:17.878Z,100976.16
2023-01-30T02:15:44.663Z,100972.16
2023-01-30T02:18:12.518Z,100987.34
2023-01-30T02:20:48.165Z,100980.50
2023-01-30T02:23:17.638Z,100971.28
2023-01-30T02:25:47.567Z,100968.56
2023-01-30T02:28:26.607Z,100965.50
2023-01-30T02:30:53.382Z,100967.16
2023-01-30T02:33:40.104Z,100955.69
2023-01-30T02:36:06.841Z,100958.00
2023-01-30T02:38:53.147Z,100946.63
2023-01-30T02:41:25.311Z,100946.50
2023-01-30T02:43:51.990Z,100946.88
2023-01-30T02:46:24.423Z,100932.44
2023-01-30T02:48:59.957Z,100927.88
2023-01-30T02:51:29.790Z,100922.19
2023-01-30T02:53:56.607Z,100919.50
2023-01-30T02:56:23.399Z,100913.16
2023-01-30T02:58:53.689Z,100914.72
2023-01-30T03:01:23.441Z,100907.31
2023-01-30T03:04:01.768Z,100913.88
2023-01-30T03:06:31.473Z,100901.19
2023-01-30T03:09:21.312Z,100904.72
2023-01-30T03:12:02.047Z,100896.19
2023-01-30T03:14:55.157Z,100890.69
2023-01-30T03:17:24.913Z,100879.91
2023-01-30T03:19:53.114Z,100878.94
2023-01-30T03:22:20.756Z,100880.41
2023-01-30T03:24:48.133Z,100880.53
2023-01-30T03:27:14.962Z,100876.06
2023-01-30T03:29:41.829Z,100861.50
2023-01-30T03:32:08.566Z,100860.44
2023-01-30T03:34:35.247Z,100854.28
2023-01-30T03:37:02.235Z,100854.22
2023-01-30T03:39:28.942Z,100848.59
2023-01-30T03:41:55.761Z,100851.75
2023-01-30T03:44:22.628Z,100849.56
2023-01-30T03:46:49.350Z,100853.13
2023-01-30T03:49:16.202Z,100853.44
2023-01-30T03:52:20.607Z,100833.41
2023-01-30T03:54:47.407Z,100833.41
2023-01-30T03:57:14.204Z,100848.62
2023-01-30T03:59:41.046Z,100853.00
2023-01-30T04:02:21.189Z,100845.78
2023-01-30T04:04:57.047Z,100838.88
2023-01-30T04:07:23.996Z,100835.09
2023-01-30T04:09:50.697Z,100838.25
2023-01-30T04:12:17.580Z,100839.31
2023-01-30T04:14:44.315Z,100841.53
2023-01-30T04:17:11.007Z,100841.78
2023-01-30T04:19:37.895Z,100830.44
2023-01-30T04:22:04.637Z,100828.66
2023-01-30T04:24:31.448Z,100831.62
2023-01-30T04:26:58.191Z,100821.19
2023-01-30T04:29:25.141Z,100822.47
2023-01-30T04:31:51.933Z,100820.59
2023-01-30T04:34:18.668Z,100812.75
2023-01-30T04:36:45.369Z,100804.75
2023-01-30T04:39:12.067Z,100802.97
2023-01-30T04:41:38.818Z,100806.94
2023-01-30T04:44:05.508Z,100800.81
2023-01-30T04:46:32.220Z,100798.34
2023-01-30T04:48:58.929Z,100800.13
2023-01-30T04:51:25.808Z,100805.34
2023-01-30T04:53:52.510Z,100797.69
2023-01-30T04:56:22.681Z,100797.06
2023-01-30T04:58:49.378Z,100791.84
2023-01-30T05:01:19.599Z,100782.41
2023-01-30T05:03:49.299Z,100783.31
2023-01-30T05:06:15.989Z,100776.66
2023-01-30T05:08:43.033Z,100783.41
2023-01-30T05:11:10.849Z,100777.44
2023-01-30T05:13:37.554Z,100784.28
2023-01-30T05:16:07.290Z,100783.59
2023-01-30T05:18:34.395Z,100783.53
2023-01-30T05:21:08.068Z,100786.66
2023-01-30T05:23:35.183Z,100774.22
2023-01-30T05:26:02.380Z,100767.91
2023-01-30T05:28:29.559Z,100777.28
2023-01-30T05:31:06.751Z,100779.72
2023-01-30T05:33:33.700Z,100778.38
2023-01-30T05:36:00.553Z,100769.78
2023-01-30T05:38:29.608Z,100767.91
2023-01-30T05:41:03.482Z,100770.41
2023-01-30T05:43:30.550Z,100773.19
2023-01-30T05:45:58.210Z,100773.75
2023-01-30T05:48:25.201Z,100772.00
2023-01-30T05:50:52.521Z,100772.19
2023-01-30T05:53:19.857Z,100782.22
2023-01-30T05:55:46.576Z,100783.66
2023-01-30T05:58:13.397Z,100772.00
2023-01-30T06:00:40.198Z,100775.72
2023-01-30T06:03:06.925Z,100780.75
2023-01-30T06:05:33.647Z,100775.53
2023-01-30T06:08:00.370Z,100776.00
2023-01-30T06:10:27.047Z,100769.13
2023-01-30T06:12:54.144Z,100782.09
2023-01-30T06:15:20.955Z,100770.25
2023-01-30T06:17:47.672Z,100760.88
2023-01-30T06:20:14.588Z,100755.91
2023-01-30T06:22:41.290Z,100765.00
2023-01-30T06:25:09.358Z,100761.59
2023-01-30T06:27:36.242Z,100759.00
2023-01-30T06:30:03.201Z,100758.44
2023-01-30T06:32:29.969Z,100750.16
2023-01-30T06:34:56.677Z,100745.56
2023-01-30T06:37:23.409Z,100745.75
2023-01-30T06:39:50.177Z,100751.53
2023-01-30T06:42:16.932Z,100753.31
2023-01-30T06:44:43.799Z,100745.13
2023-01-30T06:47:10.525Z,100747.19
2023-01-30T06:49:37.267Z,100760.75
2023-01-30T06:52:05.883Z,100751.72
2023-01-30T06:54:32.758Z,100744.63
2023-01-30T06:56:59.729Z,100738.06
2023-01-30T06:59:26.500Z,100735.66
2023-01-30T07:01:53.297Z,100738.25
2023-01-30T07:04:20.076Z,100742.37
2023-01-30T07:06:47.179Z,100740.22
2023-01-30T07:09:13.958Z,100732.81
2023-01-30T07:11:40.807Z,100733.59
2023-01-30T07:14:07.527Z,100742.13
2023-01-30T07:16:34.267Z,100741.59
2023-01-30T07:19:01.104Z,100729.47
2023-01-30T07:21:27.902Z,100720.88
2023-01-30T07:23:54.722Z,100717.69
2023-01-30T07:26:21.577Z,100724.69
2023-01-30T07:28:48.352Z,100726.28
2023-01-30T07:31:15.040Z,100719.91
2023-01-30T07:33:41.781Z,100715.94
2023-01-30T07:36:08.689Z,100721.31
2023-01-30T07:38:36.849Z,100719.28
2023-01-30T07:41:03.562Z,100714.09
2023-01-30T07:43:30.381Z,100713.50
2023-01-30T07:45:57.082Z,100700.16
2023-01-30T07:48:23.839Z,100693.69
2023-01-30T07:50:50.760Z,100691.31
2023-01-30T07:53:18.814Z,100692.31
2023-01-30T07:55:46.037Z,100684.72
2023-01-30T07:58:14.408Z,100667.47
2023-01-30T08:00:43.052Z,100674.50
2023-01-30T08:03:13.726Z,100668.53
2023-01-30T08:05:43.610Z,100678.88
2023-01-30T08:08:10.474Z,100686.50
2023-01-30T08:10:37.358Z,100688.78
2023-01-30T08:13:04.261Z,100670.19
2023-01-30T08:15:32.980Z,100678.69
2023-01-30T08:18:00.100Z,100662.44
2023-01-30T08:20:27.619Z,100664.88
2023-01-30T08:22:54.771Z,100670.28
2023-01-30T08:25:21.669Z,100657.87
2023-01-30T08:27:48.634Z,100642.34
2023-01-30T08:30:15.645Z,100631.47
2023-01-30T08:32:42.609Z,100639.47
2023-01-30T08:35:09.788Z,100635.69
2023-01-30T08:37:36.674Z,100626.56
2023-01-30T08:40:03.720Z,100627.19
2023-01-30T08:42:30.563Z,100620.06
2023-01-30T08:44:59.560Z,100621.44
2023-01-30T08:47:27.366Z,100614.25
2023-01-30T08:49:57.280Z,100608.56
2023-01-30T08:52:24.349Z,100598.03
2023-01-30T08:54:51.171Z,100593.81
2023-01-30T08:59:45.192Z,100593.66
2023-01-30T09:02:15.679Z,100592.75
2023-01-30T09:04:44.692Z,100600.97
2023-01-30T09:07:13.533Z,100599.69
2023-01-30T09:09:40.639Z,100604.19
2023-01-30T09:12:08.603Z,100605.78
2023-01-30T09:14:35.670Z,100596.50
2023-01-30T09:17:02.986Z,100593.91
2023-01-30T09:19:32.152Z,100588.97
2023-01-30T09:21:59.347Z,100587.38
2023-01-30T09:24:34.212Z,100581.47
2023-01-30T09:27:02.939Z,100583.06
2023-01-30T09:29:33.962Z,100575.28
2023-01-30T09:32:05.817Z,100581.16
2023-01-30T09:34:36.973Z,100566.13
2023-01-30T09:37:05.014Z,100573.81
2023-01-30T09:39:32.191Z,100584.47
2023-01-30T09:42:05.234Z,100581.94
2023-01-30T09:44:41.299Z,100575.03
2023-01-30T09:47:19.122Z,100572.25
2023-01-30T09:49:55.086Z,100569.63
2023-01-30T09:52:35.052Z,100565.38
2023-01-30T09:55:24.756Z,100564.34
2023-01-30T09:57:54.418Z,100559.31
2023-01-30T10:00:44.609Z,100554.06
2023-01-30T10:03:21.526Z,100556.75
2023-01-30T10:05:49.980Z,100542.97
2023-01-30T10:08:19.831Z,100550.41
2023-01-30T10:11:09.608Z,100548.63
2023-01-30T10:13:54.698Z,100525.41
2023-01-30T10:16:28.830Z,100528.06
2023-01-30T10:19:00.757Z,100528.16
2023-01-30T10:21:35.759Z,100530.84
2023-01-30T10:24:08.785Z,100532.81
2023-01-30T10:26:35.616Z,100529.81
2023-01-30T10:29:07.537Z,100514.16
2023-01-30T10:31:44.747Z,100520.06
2023-01-30T10:34:14.828Z,100521.91
2023-01-30T10:36:49.215Z,100520.16
2023-01-30T10:39:23.141Z,100516.62
2023-01-30T10:41:59.369Z,100503.84
2023-01-30T10:44:26.355Z,100484.66
2023-01-30T10:46:59.508Z,100482.91
2023-01-30T10:49:46.883Z,100479.88
2023-01-30T10:52:24.669Z,100480.91
2023-01-30T10:55:00.559Z,100474.37
2023-01-30T10:57:38.808Z,100469.59
2023-01-30T11:00:10.801Z,100456.53
2023-01-30T11:02:58.464Z,100442.84
2023-01-30T11:05:26.329Z,100432.31
2023-01-30T11:07:53.254Z,100431.53
2023-01-30T11:10:24.569Z,100439.31
2023-01-30T11:12:56.527Z,100430.72
2023-01-30T11:15:28.196Z,100424.59
2023-01-30T11:18:49.717Z,100421.09
2023-01-30T11:21:01.508Z,100399.09
2023-01-30T11:23:40.621Z,100407.97
2023-01-30T11:26:11.795Z,100398.38
2023-01-30T11:28:49.149Z,100392.22
2023-01-30T11:31:44.487Z,100391.19
2023-01-30T11:34:18.441Z,100385.25
2023-01-30T11:36:47.613Z,100379.13
2023-01-30T11:39:14.796Z,100364.28
2023-01-30T11:41:42.799Z,100366.91
2023-01-30T11:44:12.007Z,100365.09
2023-01-30T11:46:40.156Z,100354.66
2023-01-30T11:49:47.286Z,100351.06
2023-01-30T11:52:08.454Z,100335.31
2023-01-30T11:54:41.530Z,100329.00
2023-01-30T11:57:12.320Z,100319.34
2023-01-30T11:59:50.077Z,100314.09
2023-01-30T12:02:29.310Z,100301.91
2023-01-30T12:04:57.579Z,100293.22
2023-01-30T12:07:26.261Z,100297.69
2023-01-30T12:09:55.142Z,100301.31
2023-01-30T12:12:39.385Z,100288.19
2023-01-30T12:15:19.366Z,100286.50
2023-01-30T12:17:50.273Z,100283.94
2023-01-30T12:20:26.624Z,100269.91
2023-01-30T12:23:00.746Z,100269.03
2023-01-30T12:25:35.024Z,100266.38
2023-01-30T12:28:18.974Z,100261.16
2023-01-30T12:30:59.007Z,100261.25
2023-01-30T12:33:28.880Z,100251.56
2023-01-30T12:36:01.912Z,100260.31
2023-01-30T12:38:40.118Z,100253.94
2023-01-30T12:41:16.249Z,100253.78
2023-01-30T12:43:56.117Z,100252.16
2023-01-30T12:46:38.276Z,100246.09
2023-01-30T12:49:11.316Z,100227.97
2023-01-30T12:51:51.660Z,100220.13
2023-01-30T12:54:33.637Z,100220.09
2023-01-30T12:57:23.178Z,100202.78
2023-01-30T13:00:16.331Z,100196.63
2023-01-30T13:02:49.257Z,100200.97
2023-01-30T13:05:21.669Z,100191.31
2023-01-30T13:08:11.541Z,100200.16
2023-01-30T13:10:41.130Z,100191.44
2023-01-30T13:13:25.199Z,100178.28
2023-01-30T13:16:12.161Z,100173.09
2023-01-30T13:18:55.726Z,100164.38
2023-01-30T13:21:45.145Z,100150.38
2023-01-30T13:24:22.768Z,100149.50
2023-01-30T13:26:51.126Z,100148.63
2023-01-30T13:29:33.517Z,100147.72
2023-01-30T13:32:03.067Z,100150.41
2023-01-30T13:34:34.394Z,100154.72
2023-01-30T13:37:11.097Z,100145.16
2023-01-30T13:39:42.375Z,100140.81
2023-01-30T13:42:28.109Z,100152.13
2023-01-30T13:44:57.888Z,100152.13
2023-01-30T13:47:45.021Z,100139.03
2023-01-30T13:50:41.439Z,100133.72
2023-01-30T13:53:21.897Z,100133.75
2023-01-30T13:56:32.936Z,100132.91
2023-01-30T13:59:12.301Z,100132.06
2023-01-30T14:02:00.058Z,100133.81
2023-01-30T14:04:42.560Z,100136.28
2023-01-30T14:07:12.248Z,100125.03
2023-01-30T14:09:49.140Z,100121.91
2023-01-30T14:12:20.602Z,100122.28
2023-01-30T14:15:07.652Z,100118.91
2023-01-30T14:17:34.634Z,100122.44
2023-01-30T14:20:04.502Z,100124.19
2023-01-30T14:22:36.950Z,100118.97
2023-01-30T14:25:22.735Z,100108.50
2023-01-30T14:27:53.107Z,100105.91
2023-01-30T14:30:32.250Z,100099.75
2023-01-30T14:33:00.578Z,100098.03
2023-01-30T14:35:32.868Z,100101.50
2023-01-30T14:38:12.018Z,100106.72
2023-01-30T14:40:40.078Z,100097.87
2023-01-30T14:43:15.231Z,100101.34
2023-01-30T14:45:57.103Z,100095.31
2023-01-30T14:48:37.607Z,100104.87
2023-01-30T14:51:10.328Z,100097.91
2023-01-30T14:53:47.922Z,100101.47
2023-01-30T14:56:17.000Z,100097.19
2023-01-30T14:58:57.135Z,100091.03
2023-01-30T15:01:25.109Z,100102.38
2023-01-30T15:03:52.260Z,100094.47
2023-01-30T15:06:22.537Z,100093.69
2023-01-30T15:08:50.426Z,100096.28
2023-01-30T15:11:21.531Z,100098.00
2023-01-30T15:13:55.297Z,100097.16
2023-01-30T15:16:34.175Z,100093.66
2023-01-30T15:19:19.449Z,100098.91
2023-01-30T15:21:51.208Z,100097.19
2023-01-30T15:24:33.260Z,100100.69
2023-01-30T15:27:14.520Z,100099.78
2023-01-30T15:29:50.703Z,100098.06
2023-01-30T15:32:23.129Z,100098.94
2023-01-30T15:35:10.079Z,100109.41
2023-01-30T15:37:40.281Z,100118.09
2023-01-30T15:40:19.289Z,100132.06
2023-01-30T15:43:05.815Z,100120.72
2023-01-30T15:45:51.503Z,100119.84
2023-01-30T15:48:36.928Z,100146.81
2023-01-30T15:51:04.318Z,100163.13
2023-01-30T15:53:34.691Z,100196.25
2023-01-30T15:56:03.538Z,100187.47
2023-01-30T15:58:38.248Z,100206.25
2023-01-30T16:01:10.633Z,100219.13
2023-01-30T16:03:42.808Z,100213.44
2023-01-30T16:06:24.788Z,100218.44
2023-01-30T16:08:58.709Z,100232.06
2023-01-30T16:11:35.648Z,100242.59
2023-01-30T16:14:02.497Z,100242.56
2023-01-30T16:16:57.654Z,100250.81
2023-01-30T16:19:34.840Z,100255.69
2023-01-30T16:22:04.300Z,100243.84
2023-01-30T16:24:33.164Z,100249.19
2023-01-30T16:27:02.942Z,100251.44
2023-01-30T16:29:33.553Z,100236.44
2023-01-30T16:32:00.755Z,100232.56
2023-01-30T16:34:37.162Z,100211.19
2023-01-30T16:37:21.938Z,100198.00
2023-01-30T16:40:07.497Z,100195.16
2023-01-30T16:42:34.359Z,100171.03
2023-01-30T16:45:21.717Z,100193.59
2023-01-30T16:47:48.540Z,100190.81
2023-01-30T16:50:21.515Z,100194.53
2023-01-30T16:52:52.014Z,100199.00
2023-01-30T16:55:20.680Z,100203.66
2023-01-30T16:57:50.517Z,100212.12
2023-01-30T17:00:29.488Z,100214.72
2023-01-30T17:02:57.914Z,100199.47
2023-01-30T17:05:29.521Z,100200.69
2023-01-30T17:07:57.021Z,100193.56
2023-01-30T17:10:41.881Z,100182.31
2023-01-30T17:13:28.032Z,100185.16
2023-01-30T17:15:55.115Z,100194.00
2023-01-30T17:18:21.918Z,100220.06
2023-01-30T17:20:51.418Z,100200.94
2023-01-30T17:23:19.432Z,100201.88
2023-01-30T17:25:48.238Z,100213.91
2023-01-30T17:28:21.519Z,100215.41
2023-01-30T17:30:49.068Z,100195.22
2023-01-30T17:33:17.972Z,100193.81
2023-01-30T17:35:45.301Z,100185.50
2023-01-30T17:38:12.437Z,100207.28
2023-01-30T17:40:39.517Z,100224.28
2023-01-30T17:43:06.368Z,100222.09
2023-01-30T17:45:33.205Z,100224.94
2023-01-30T17:47:59.965Z,100221.56
2023-01-30T17:50:28.580Z,100202.38
2023-01-30T17:52:55.348Z,100224.81
2023-01-30T17:55:22.464Z,100223.09
2023-01-30T17:57:49.711Z,100239.44
2023-01-30T18:00:20.300Z,100238.84
2023-01-30T18:02:47.461Z,100251.28
2023-01-30T18:05:14.709Z,100257.19
2023-01-30T18:07:41.671Z,100243.34
2023-01-30T18:10:12.329Z,100248.25
2023-01-30T18:12:39.070Z,100255.25
2023-01-30T18:15:06.047Z,100249.34
2023-01-30T18:17:32.880Z,100253.09
2023-01-30T18:20:01.297Z,100251.44
2023-01-30T18:22:28.073Z,100256.72
2023-01-30T18:24:54.808Z,100262.06
2023-01-30T18:27:21.578Z,100269.84
2023-01-30T18:29:48.251Z,100262.28
2023-01-30T18:32:14.999Z,100278.25
2023-01-30T18:34:42.090Z,100278.06
2023-01-30T18:37:08.884Z,100273.28
2023-01-30T18:39:36.973Z,100294.53
2023-01-30T18:42:04.350Z,100304.41
2023-01-30T18:44:31.357Z,100299.75
2023-01-30T18:46:58.550Z,100289.59
2023-01-30T18:49:25.353Z,100290.91
2023-01-30T18:51:52.107Z,100295.00
2023-01-30T18:54:18.864Z,100286.53
2023-01-30T18:56:45.681Z,100280.84
2023-01-30T18:59:12.551Z,100266.34
2023-01-30T19:01:42.732Z,100267.47
2023-01-30T19:04:10.591Z,100272.66
2023-01-30T19:06:39.389Z,100270.03
2023-01-30T19:09:06.601Z,100279.62
2023-01-30T19:11:53.588Z,100282.25
2023-01-30T19:14:20.452Z,100288.34
2023-01-30T19:16:47.440Z,100292.66
2023-01-30T19:19:14.361Z,100297.00
2023-01-30T19:21:41.150Z,100290.84
2023-01-30T19:24:11.548Z,100292.38
2023-01-30T19:26:38.343Z,100297.53
2023-01-30T19:29:05.488Z,100302.72
2023-01-30T19:31:32.377Z,100307.28
2023-01-30T19:34:01.137Z,100299.75
2023-01-30T19:36:29.390Z,100293.59
2023-01-30T19:38:59.345Z,100289.00
2023-01-30T19:41:28.152Z,100285.66
2023-01-30T19:43:55.661Z,100291.16
2023-01-30T19:46:23.894Z,100305.75
2023-01-30T19:48:50.692Z,100304.06
2023-01-30T19:51:43.860Z,100306.91
2023-01-30T19:54:11.949Z,100303.94
2023-01-30T19:56:42.732Z,100306.81
2023-01-30T19:59:11.322Z,100303.16
2023-01-30T20:01:40.578Z,100312.13
2023-01-30T20:04:08.699Z,100299.75
2023-01-30T20:06:36.218Z,100309.47
2023-01-30T20:09:08.615Z,100312.97
2023-01-30T20:11:36.330Z,100325.41
2023-01-30T20:14:23.147Z,100309.88
2023-01-30T20:17:09.819Z,100306.00
2023-01-30T20:19:36.538Z,100318.63
2023-01-30T20:22:08.294Z,100320.00
2023-01-30T20:24:47.794Z,100327.84
2023-01-30T20:27:15.168Z,100329.72
2023-01-30T20:29:41.946Z,100324.19
2023-01-30T20:32:08.860Z,100325.25
2023-01-30T20:34:35.697Z,100310.75
2023-01-30T20:37:02.390Z,100301.81
2023-01-30T20:39:29.696Z,100306.41
2023-01-30T20:41:56.458Z,100309.59
2023-01-30T20:44:24.491Z,100296.69
2023-01-30T20:46:51.473Z,100308.06
2023-01-30T20:49:19.630Z,100326.13
2023-01-30T20:51:47.150Z,100339.34
2023-01-30T20:54:15.016Z,100342.50
2023-01-30T20:56:43.929Z,100345.16
2023-01-30T20:59:12.093Z,100345.03
2023-01-30T21:01:39.458Z,100356.59
2023-01-30T21:04:07.468Z,100349.63
2023-01-30T21:06:42.437Z,100354.59
2023-01-30T21:09:15.900Z,100350.16
2023-01-30T21:11:43.311Z,100353.62
2023-01-30T21:14:12.056Z,100352.63
2023-01-30T21:16:39.395Z,100341.22
2023-01-30T21:19:07.475Z,100341.13
2023-01-30T21:21:35.941Z,100333.03
2023-01-30T21:24:04.505Z,100329.72
2023-01-30T21:26:32.235Z,100339.63
2023-01-30T21:29:03.008Z,100340.09
2023-01-30T21:31:30.946Z,100336.13
2023-01-30T21:33:59.684Z,100348.06
2023-01-30T21:36:27.333Z,100355.41
2023-01-30T21:39:12.962Z,100354.34
2023-01-30T21:41:59.713Z,100354.38
2023-01-30T21:44:28.207Z,100350.88
2023-01-30T21:46:55.191Z,100353.91
2023-01-30T21:49:25.463Z,100360.09
2023-01-30T21:51:52.662Z,100344.81
2023-01-30T21:54:19.587Z,100345.75
2023-01-30T21:56:48.885Z,100349.13
2023-01-30T21:59:15.809Z,100350.22
2023-01-30T22:01:42.700Z,100348.91
2023-01-30T22:04:10.999Z,100354.72
2023-01-30T22:06:38.871Z,100346.84
2023-01-30T22:09:06.023Z,100342.94
2023-01-30T22:11:33.040Z,100357.00
2023-01-30T22:13:59.821Z,100344.97
2023-01-30T22:16:33.750Z,100348.63
2023-01-30T22:19:01.764Z,100342.50
2023-01-30T22:21:32.481Z,100349.56
2023-01-30T22:23:59.561Z,100343.59
2023-01-30T22:26:28.625Z,100350.06
2023-01-30T22:28:56.524Z,100345.22
2023-01-30T22:31:43.390Z,100343.50
2023-01-30T22:34:30.587Z,100336.50
2023-01-30T22:37:01.797Z,100338.06
2023-01-30T22:39:28.520Z,100361.78
2023-01-30T22:42:15.370Z,100352.37
2023-01-30T22:44:46.570Z,100355.03
2023-01-30T22:47:13.673Z,100360.56
2023-01-30T22:50:00.372Z,100362.25
2023-01-30T22:52:38.287Z,100361.78
2023-01-30T22:55:09.544Z,100359.63
2023-01-30T22:57:36.835Z,100355.00
2023-01-30T23:00:09.409Z,100364.59
2023-01-30T23:02:36.215Z,100360.34
2023-01-30T23:05:04.296Z,100374.44
2023-01-30T23:07:31.040Z,100371.94
2023-01-30T23:10:03.143Z,100370.94
2023-01-30T23:12:48.561Z,100378.16
2023-01-30T23:15:15.275Z,100381.62
2023-01-30T23:18:00.501Z,100366.56
2023-01-30T23:20:27.219Z,100362.78
2023-01-30T23:22:54.700Z,100355.87
2023-01-30T23:25:21.690Z,100373.25
2023-01-30T23:27:48.719Z,100364.81
2023-01-30T23:30:15.575Z,100358.78
2023-01-30T23:32:42.430Z,100362.50
2023-01-30T23:35:09.688Z,100362.31
2023-01-30T23:37:54.968Z,100365.87
2023-01-30T23:40:22.129Z,100374.66
2023-01-30T23:42:48.832Z,100377.44
2023-01-30T23:45:15.766Z,100375.56
2023-01-30T23:47:43.618Z,100370.25
2023-01-30T23:50:10.977Z,100379.97
2023-01-30T23:52:38.719Z,100375.41
2023-01-30T23:55:06.892Z,100380.88
2023-01-30T23:57:33.580Z,100381.16
